< < Back
Terminal Aerodrome Forecast


Current Version              Previous Versions:   1  2  3  4  5  6  7  8  9  

Terminal Aerodrome Forecast

576
FTUS42 KJAX 260520
TAFJAX
TAF
KJAX 260520Z 2606/2706 33003KT P6SM SCT040 BKN250
     FM260900 VRB03KT P6SM VCSH SCT020 BKN040
     FM261400 06009KT P6SM VCSH SCT020 BKN030
     FM261700 07012KT P6SM VCTS BKN035CB
     FM262300 06007KT P6SM SCT040 BKN250=

Latest METAR

048
SAUS80 KWBC 262000 CCA
MTRJAX
METAR KJAX 261956Z 03012G18KT 10SM SCT032 BKN200 29/22 A2994 RMK AO2
SLP140 T02940217


USA.gov is the U.S. government's official web portal to all federal, state and local government web resources and services.